Maryville, Iowa
Current Conditions -  °F | °C
As of 6:15 PM on Sunday 25 Jan 2015 (Local Time) from KOLZ Reporting Station
Clear Clear  
Wind Chill: 18°   Ceiling: Unl
Heat Index: 27°   Visibility: 10mi
Dew Point: 21°   Wind: 8mph
Humidity: 80%   Direction: 350°N
Pressure: 30.02"   Gusts: NA
Location:  42.7309°N, 91.6667°W
Report Text: KOLZ 260015Z AUTO 35007KT 10SM CLR M03/M06 A3002 RMK AO2
Loading
Personal Weather Stations






























Interactive Weather Map New forecast layout! Learn more

10-Day Weather Forecast

Advertisements
Track Severe Weather on mobile